Hawleyville, Connecticut
Current Conditions -  °F | °C
As of 12:53 AM on Saturday 25 Oct 2014 (Local Time) from KDXR Reporting Station
Clear Clear  
Wind Chill: 43°   Ceiling: Unl
Heat Index: 46°   Visibility: 10mi
Dew Point: 40°   Wind: 6mph
Humidity: 79%   Direction: 270°W
Pressure: 29.84"   Gusts: NA
Location:  41.43°N, 73.36°W
Report Text: KDXR 250453Z AUTO 27005KT 10SM CLR 08/04 A2984 RMK AO2 SLP106 T00780044 401280067
Loading
Personal Weather Stations






























Interactive Weather Map
Tropical Storm Tracking
New forecast layout! Learn more

10-Day Weather Forecast

Advertisements
Track Severe Weather on mobile